Time,TemperatureF,DewpointF,PressureIn,WindDirection,WindDirectionDegrees,WindSpeedMPH,WindSpeedGustMPH,Humidity,HourlyPrecipIn,Conditions,Clouds,dailyrainin,SoftwareType,DateUTC
2014-01-06 00:01:00,37.9,37.4,29.81,North,354,2.0,0.0,98,0.02,,,0.00,VWS V14.01,2014-01-06 05:01:00,
2014-01-06 00:06:00,37.8,37.3,29.80,NW,326,2.0,0.0,98,0.01,,,0.00,VWS V14.01,2014-01-06 05:06:00,
2014-01-06 00:11:00,37.8,37.3,29.79,NE,37,4.0,0.0,98,0.01,,,0.01,VWS V14.01,2014-01-06 05:11:00,
2014-01-06 00:16:00,37.8,37.3,29.79,ENE,72,1.0,0.0,98,0.01,,,0.01,VWS V14.01,2014-01-06 05:16:00,
2014-01-06 00:21:00,37.7,37.2,29.78,ENE,60,2.0,0.0,98,0.01,,RA,0.01,VWS V14.01,2014-01-06 05:21:00,
2014-01-06 00:26:00,37.7,37.2,29.78,NE,51,0.0,0.0,98,0.01,,RA,0.01,VWS V14.01,2014-01-06 05:26:00,
2014-01-06 00:31:00,37.7,37.2,29.78,North,353,0.0,0.0,98,0.01,,RA,0.01,VWS V14.01,2014-01-06 05:31:00,
2014-01-06 00:36:00,37.7,37.2,29.77,NE,34,4.0,0.0,98,0.01,,RA,0.01,VWS V14.01,2014-01-06 05:36:00,
2014-01-06 00:41:00,37.7,37.2,29.77,East,93,0.0,0.0,98,0.01,,,0.01,VWS V14.01,2014-01-06 05:41:00,
2014-01-06 00:46:00,37.7,37.2,29.77,ESE,123,1.0,0.0,98,0.01,,,0.01,VWS V14.01,2014-01-06 05:46:00,
2014-01-06 00:51:00,37.7,37.2,29.77,NE,41,2.0,0.0,98,0.01,,,0.01,VWS V14.01,2014-01-06 05:51:00,
2014-01-06 00:56:00,37.7,37.2,29.76,SE,145,0.0,0.0,98,0.01,,,0.01,VWS V14.01,2014-01-06 05:56:00,
2014-01-06 01:01:00,37.7,37.2,29.76,NNE,22,1.0,0.0,98,0.01,,,0.01,VWS V14.01,2014-01-06 06:01:00,
2014-01-06 01:06:00,37.7,37.2,29.76,West,277,0.0,0.0,98,0.01,,,0.01,VWS V14.01,2014-01-06 06:06:00,
2014-01-06 01:11:00,37.7,37.2,29.76,East,84,0.0,0.0,98,0.00,,,0.01,VWS V14.01,2014-01-06 06:11:00,
2014-01-06 01:16:00,37.8,37.3,29.76,East,80,0.0,0.0,98,0.00,,,0.01,VWS V14.01,2014-01-06 06:16:00,
2014-01-06 01:21:00,37.8,37.3,29.76,East,81,0.0,0.0,98,0.01,,,0.02,VWS V14.01,2014-01-06 06:21:00,
2014-01-06 01:26:00,37.8,37.3,29.75,East,81,0.0,0.0,98,0.01,,,0.02,VWS V14.01,2014-01-06 06:26:00,
2014-01-06 01:31:00,37.7,37.2,29.74,NNE,19,1.0,0.0,98,0.01,,,0.02,VWS V14.01,2014-01-06 06:31:00,
2014-01-06 01:36:00,37.7,37.2,29.74,ENE,58,1.0,0.0,98,0.01,,,0.02,VWS V14.01,2014-01-06 06:36:00,
2014-01-06 01:41:00,37.7,37.2,29.74,North,358,2.0,0.0,98,0.01,,RA,0.02,VWS V14.01,2014-01-06 06:41:00,
2014-01-06 01:46:00,37.7,37.2,29.74,NNE,17,1.0,0.0,98,0.01,,RA,0.02,VWS V14.01,2014-01-06 06:46:00,
2014-01-06 01:51:00,37.7,37.2,29.73,North,3,1.0,0.0,98,0.01,,RA,0.02,VWS V14.01,2014-01-06 06:51:00,
2014-01-06 01:56:00,37.8,37.3,29.74,North,1,2.0,0.0,98,0.01,,RA,0.02,VWS V14.01,2014-01-06 06:56:00,
2014-01-06 02:01:00,37.8,37.3,29.74,NE,41,1.0,0.0,98,0.01,,,0.02,VWS V14.01,2014-01-06 07:01:00,
2014-01-06 02:06:00,37.8,37.3,29.74,NNE,25,0.0,0.0,98,0.02,,,0.03,VWS V14.01,2014-01-06 07:06:00,
2014-01-06 02:11:00,37.8,37.3,29.74,NNE,22,1.0,0.0,98,0.03,,,0.04,VWS V14.01,2014-01-06 07:11:00,
2014-01-06 02:16:00,37.8,37.3,29.75,North,9,1.0,0.0,98,0.05,,,0.06,VWS V14.01,2014-01-06 07:16:00,
2014-01-06 02:21:00,37.8,37.3,29.75,SE,134,0.0,0.0,98,0.05,,-RA,0.06,VWS V14.01,2014-01-06 07:21:00,
2014-01-06 02:26:00,37.9,37.4,29.74,ESE,123,0.0,0.0,98,0.05,,-RA,0.07,VWS V14.01,2014-01-06 07:26:00,
2014-01-06 02:31:00,37.9,37.4,29.74,ESE,110,0.0,0.0,98,0.05,,-RA,0.07,VWS V14.01,2014-01-06 07:31:00,
2014-01-06 02:36:00,38.0,37.5,29.74,NE,37,1.0,0.0,98,0.06,,-RA,0.08,VWS V14.01,2014-01-06 07:36:00,
2014-01-06 02:41:00,38.0,37.5,29.74,East,99,1.0,0.0,98,0.06,,-RA,0.08,VWS V14.01,2014-01-06 07:41:00,
2014-01-06 02:46:00,38.1,37.6,29.73,South,173,0.0,0.0,98,0.06,,-RA,0.08,VWS V14.01,2014-01-06 07:46:00,
2014-01-06 02:51:00,38.2,37.7,29.72,NE,37,2.0,0.0,98,0.06,,-RA,0.08,VWS V14.01,2014-01-06 07:51:00,
2014-01-06 02:56:00,38.0,37.5,29.73,North,4,1.0,0.0,98,0.06,,-RA,0.08,VWS V14.01,2014-01-06 07:56:00,
2014-01-06 03:01:00,38.1,37.6,29.73,NNW,332,4.0,0.0,98,0.06,,-RA,0.08,VWS V14.01,2014-01-06 08:01:00,
2014-01-06 03:06:00,38.1,37.6,29.74,North,4,2.0,0.0,98,0.05,,-RA,0.08,VWS V14.01,2014-01-06 08:06:00,
2014-01-06 03:11:00,38.1,37.6,29.74,NNE,30,0.0,0.0,98,0.04,,-RA,0.08,VWS V14.01,2014-01-06 08:11:00,
2014-01-06 03:16:00,38.2,37.7,29.74,ENE,60,0.0,0.0,98,0.02,,-RA,0.08,VWS V14.01,2014-01-06 08:16:00,
2014-01-06 03:21:00,38.1,37.6,29.73,ENE,69,0.0,0.0,98,0.02,,,0.08,VWS V14.01,2014-01-06 08:21:00,
2014-01-06 03:26:00,38.1,37.6,29.73,NNW,338,0.0,0.0,98,0.01,,,0.08,VWS V14.01,2014-01-06 08:26:00,
2014-01-06 03:31:00,38.2,37.7,29.75,South,190,0.0,0.0,98,0.01,,,0.08,VWS V14.01,2014-01-06 08:31:00,
2014-01-06 03:36:00,38.3,37.8,29.75,SW,224,1.0,0.0,98,0.00,,,0.08,VWS V14.01,2014-01-06 08:36:00,
2014-01-06 03:41:00,38.7,38.2,29.75,NW,308,1.0,0.0,98,0.00,,-RA,0.08,VWS V14.01,2014-01-06 08:41:00,
2014-01-06 03:46:00,39.1,38.6,29.75,SW,226,4.0,0.0,98,0.00,,-RA,0.08,VWS V14.01,2014-01-06 08:46:00,
2014-01-06 03:51:00,39.4,38.9,29.74,WNW,302,3.0,0.0,98,0.00,,-RA,0.08,VWS V14.01,2014-01-06 08:51:00,
2014-01-06 03:56:00,39.9,39.4,29.74,WSW,250,1.0,0.0,98,0.00,,-RA,0.08,VWS V14.01,2014-01-06 08:56:00,
2014-01-06 04:01:00,40.1,39.6,29.74,WSW,255,3.0,0.0,98,0.00,,,0.08,VWS V14.01,2014-01-06 09:01:00,
2014-01-06 04:06:00,40.3,39.8,29.74,WSW,250,1.0,0.0,98,0.00,,,0.08,VWS V14.01,2014-01-06 09:06:00,
2014-01-06 04:11:00,40.3,39.8,29.74,West,262,1.0,0.0,98,0.00,,,0.08,VWS V14.01,2014-01-06 09:11:00,
2014-01-06 04:16:00,40.4,39.9,29.74,SW,224,2.0,0.0,98,0.00,,,0.08,VWS V14.01,2014-01-06 09:16:00,
2014-01-06 04:21:00,40.5,40.0,29.74,WSW,256,1.0,0.0,98,0.00,,,0.08,VWS V14.01,2014-01-06 09:21:00,
2014-01-06 04:26:00,40.6,40.1,29.74,WSW,253,1.0,0.0,98,0.00,,,0.08,VWS V14.01,2014-01-06 09:26:00,
2014-01-06 04:31:00,40.8,40.3,29.74,SW,232,2.0,0.0,98,0.00,,,0.08,VWS V14.01,2014-01-06 09:31:00,
2014-01-06 04:36:00,40.8,40.3,29.74,WSW,248,0.0,0.0,98,0.00,,,0.08,VWS V14.01,2014-01-06 09:36:00,
2014-01-06 04:41:00,40.9,40.4,29.74,WNW,290,1.0,0.0,98,0.00,,,0.08,VWS V14.01,2014-01-06 09:41:00,
2014-01-06 04:46:00,40.9,40.4,29.74,WSW,250,2.0,0.0,98,0.00,,,0.08,VWS V14.01,2014-01-06 09:46:00,
2014-01-06 04:51:00,41.0,40.5,29.74,WSW,250,1.0,0.0,98,0.00,,,0.08,VWS V14.01,2014-01-06 09:51:00,
2014-01-06 04:56:00,40.9,40.4,29.74,SW,231,1.0,0.0,98,0.00,,,0.08,VWS V14.01,2014-01-06 09:56:00,
2014-01-06 05:01:00,40.9,40.4,29.75,WSW,249,1.0,0.0,98,0.00,,,0.08,VWS V14.01,2014-01-06 10:01:00,
2014-01-06 05:06:00,40.8,40.3,29.74,NW,310,3.0,0.0,98,0.00,,,0.08,VWS V14.01,2014-01-06 10:06:00,
2014-01-06 05:11:00,40.7,39.9,29.74,West,266,1.0,0.0,97,0.00,,,0.08,VWS V14.01,2014-01-06 10:11:00,
2014-01-06 05:16:00,40.7,39.9,29.75,WSW,252,0.0,0.0,97,0.00,,,0.08,VWS V14.01,2014-01-06 10:16:00,
2014-01-06 05:21:00,40.6,39.3,29.75,NW,314,0.0,0.0,95,0.00,,,0.08,VWS V14.01,2014-01-06 10:21:00,
2014-01-06 05:26:00,40.5,38.6,29.75,WNW,294,1.0,0.0,93,0.00,,,0.08,VWS V14.01,2014-01-06 10:26:00,
2014-01-06 05:31:00,40.6,38.5,29.76,WNW,283,0.0,0.0,92,0.00,,,0.08,VWS V14.01,2014-01-06 10:31:00,
2014-01-06 05:36:00,40.5,37.8,29.76,WNW,286,3.0,0.0,90,0.00,,,0.08,VWS V14.01,2014-01-06 10:36:00,
2014-01-06 05:41:00,40.5,35.8,29.76,WNW,297,4.0,0.0,83,0.00,,,0.08,VWS V14.01,2014-01-06 10:41:00,
2014-01-06 05:46:00,40.3,35.2,29.77,WSW,253,8.0,0.0,82,0.00,,,0.08,VWS V14.01,2014-01-06 10:46:00,
2014-01-06 05:51:00,40.1,34.8,29.77,NW,309,7.0,0.0,81,0.00,,,0.08,VWS V14.01,2014-01-06 10:51:00,
2014-01-06 05:56:00,39.7,34.4,29.77,WNW,297,6.0,0.0,81,0.00,,,0.08,VWS V14.01,2014-01-06 10:56:00,
2014-01-06 06:01:00,39.5,33.8,29.77,NW,312,4.0,0.0,80,0.00,,OVC070,0.08,VWS V14.01,2014-01-06 11:01:00,
2014-01-06 06:06:00,39.2,32.9,29.77,NW,311,4.0,0.0,78,0.00,,OVC070,0.08,VWS V14.01,2014-01-06 11:06:00,
2014-01-06 06:11:00,38.7,32.4,29.77,WNW,302,7.0,0.0,78,0.00,,OVC070,0.08,VWS V14.01,2014-01-06 11:11:00,
2014-01-06 06:16:00,38.6,31.7,29.78,WNW,299,12.0,0.0,76,0.00,,OVC070,0.08,VWS V14.01,2014-01-06 11:16:00,
2014-01-06 06:21:00,38.3,31.1,29.78,WNW,287,7.0,0.0,75,0.00,,SCT110,0.08,VWS V14.01,2014-01-06 11:21:00,
2014-01-06 06:26:00,38.0,30.8,29.79,WNW,283,4.0,0.0,75,0.00,,SCT110,0.08,VWS V14.01,2014-01-06 11:26:00,
2014-01-06 06:31:00,37.5,30.3,29.79,WNW,295,8.0,0.0,75,0.00,,SCT110,0.08,VWS V14.01,2014-01-06 11:31:00,
2014-01-06 06:36:00,37.2,30.0,29.79,WNW,297,9.0,0.0,75,0.00,,SCT110,0.08,VWS V14.01,2014-01-06 11:36:00,
2014-01-06 06:41:00,36.8,29.6,29.80,NNW,342,12.0,0.0,75,0.00,,CLR,0.08,VWS V14.01,2014-01-06 11:41:00,
2014-01-06 06:46:00,36.4,28.9,29.80,West,273,8.0,0.0,74,0.00,,CLR,0.08,VWS V14.01,2014-01-06 11:46:00,
2014-01-06 06:51:00,36.1,27.6,29.81,NNW,338,11.0,0.0,71,0.00,,CLR,0.08,VWS V14.01,2014-01-06 11:51:00,
2014-01-06 06:56:00,35.7,27.2,29.81,WNW,294,8.0,0.0,71,0.00,,CLR,0.08,VWS V14.01,2014-01-06 11:56:00,
2014-01-06 07:01:00,35.4,27.0,29.82,NW,307,12.0,12.0,71,0.00,,BKN110,0.08,VWS V14.01,2014-01-06 12:01:00,
2014-01-06 07:06:00,35.1,26.3,29.82,WNW,290,9.0,11.0,70,0.00,,BKN110,0.08,VWS V14.01,2014-01-06 12:06:00,
2014-01-06 07:11:00,34.9,26.1,29.82,WNW,299,12.0,12.0,70,0.00,,BKN110,0.08,VWS V14.01,2014-01-06 12:11:00,
2014-01-06 07:16:00,34.7,25.9,29.83,WNW,300,9.0,11.0,70,0.00,,BKN110,0.08,VWS V14.01,2014-01-06 12:16:00,
2014-01-06 07:21:00,34.5,25.7,29.83,WNW,286,9.0,11.0,70,0.00,,SCT110,0.08,VWS V14.01,2014-01-06 12:21:00,
2014-01-06 07:26:00,34.3,25.5,29.84,WNW,293,8.0,11.0,70,0.00,,SCT110,0.08,VWS V14.01,2014-01-06 12:26:00,
2014-01-06 07:31:00,34.0,26.3,29.84,West,279,7.0,11.0,73,0.00,,SCT110,0.08,VWS V14.01,2014-01-06 12:31:00,
2014-01-06 07:36:00,33.9,24.8,29.84,WNW,302,9.0,11.0,69,0.00,,SCT110,0.08,VWS V14.01,2014-01-06 12:36:00,
2014-01-06 07:41:00,33.7,25.3,29.85,WNW,292,9.0,11.0,71,0.00,,CLR,0.08,VWS V14.01,2014-01-06 12:41:00,
2014-01-06 07:46:00,33.5,24.4,29.85,NW,323,6.0,11.0,69,0.00,,CLR,0.08,VWS V14.01,2014-01-06 12:46:00,
2014-01-06 07:51:00,33.3,24.6,29.85,WNW,290,6.0,11.0,70,0.00,,CLR,0.08,VWS V14.01,2014-01-06 12:51:00,
2014-01-06 07:56:00,33.1,24.0,29.86,WNW,283,7.0,11.0,69,0.00,,CLR,0.08,VWS V14.01,2014-01-06 12:56:00,
2014-01-06 08:01:00,32.9,23.9,29.86,WNW,292,10.0,11.0,69,0.00,,CLR,0.08,VWS V14.01,2014-01-06 13:01:00,
2014-01-06 08:06:00,32.7,23.0,29.87,NW,306,10.0,11.0,67,0.00,,CLR,0.08,VWS V14.01,2014-01-06 13:06:00,
2014-01-06 08:11:00,32.5,23.1,29.87,WNW,290,7.0,11.0,68,0.00,,CLR,0.08,VWS V14.01,2014-01-06 13:11:00,
2014-01-06 08:16:00,32.4,23.4,29.88,WNW,293,10.0,11.0,69,0.00,,CLR,0.08,VWS V14.01,2014-01-06 13:16:00,
2014-01-06 08:21:00,32.3,22.6,29.88,WNW,282,9.0,11.0,67,0.00,,CLR,0.08,VWS V14.01,2014-01-06 13:21:00,
2014-01-06 08:26:00,32.2,22.5,29.89,NW,321,15.0,15.0,67,0.00,,CLR,0.08,VWS V14.01,2014-01-06 13:26:00,
2014-01-06 08:31:00,32.1,22.0,29.89,WSW,253,12.0,12.0,66,0.00,,CLR,0.08,VWS V14.01,2014-01-06 13:31:00,
2014-01-06 08:36:00,32.1,21.3,29.89,NW,305,9.0,11.0,64,0.00,,CLR,0.08,VWS V14.01,2014-01-06 13:36:00,
2014-01-06 08:41:00,32.0,21.9,29.89,NW,311,16.0,16.0,66,0.00,,CLR,0.08,VWS V14.01,2014-01-06 13:41:00,
2014-01-06 08:46:00,31.8,21.4,29.90,NW,318,7.0,11.0,65,0.00,,CLR,0.08,VWS V14.01,2014-01-06 13:46:00,
2014-01-06 08:51:00,31.7,21.3,29.90,NNW,329,6.0,11.0,65,0.00,,CLR,0.08,VWS V14.01,2014-01-06 13:51:00,
2014-01-06 08:56:00,31.6,21.2,29.91,NW,314,6.0,11.0,65,0.00,,CLR,0.08,VWS V14.01,2014-01-06 13:56:00,
2014-01-06 09:01:00,31.5,20.4,29.91,WNW,300,8.0,11.0,63,0.00,,CLR,0.08,VWS V14.01,2014-01-06 14:01:00,
2014-01-06 09:03:00,31.5,20.7,29.91,NW,308,10.0,11.0,64,0.00,,CLR,0.08,VWS V14.01,2014-01-06 14:03:00,
2014-01-06 09:08:00,31.4,21.0,29.92,WNW,283,10.0,11.0,65,0.00,,CLR,0.08,VWS V14.01,2014-01-06 14:08:00,
2014-01-06 09:13:00,31.3,20.2,29.92,NW,314,8.0,11.0,63,0.00,,CLR,0.08,VWS V14.01,2014-01-06 14:13:00,
2014-01-06 09:18:00,31.1,20.7,29.92,WNW,300,9.0,11.0,65,0.00,,CLR,0.08,VWS V14.01,2014-01-06 14:18:00,
2014-01-06 09:23:00,31.0,19.9,29.93,WNW,300,5.0,11.0,63,0.00,,CLR,0.08,VWS V14.01,2014-01-06 14:23:00,
2014-01-06 09:28:00,31.0,19.5,29.92,WNW,297,3.0,11.0,62,0.00,,CLR,0.08,VWS V14.01,2014-01-06 14:28:00,
2014-01-06 09:33:00,30.9,19.8,29.93,WNW,297,11.0,11.0,63,0.00,,CLR,0.08,VWS V14.01,2014-01-06 14:33:00,
2014-01-06 09:38:00,30.9,19.8,29.93,West,278,8.0,11.0,63,0.00,,CLR,0.08,VWS V14.01,2014-01-06 14:38:00,
2014-01-06 09:43:00,30.8,19.0,29.93,WNW,293,7.0,11.0,61,0.00,,CLR,0.08,VWS V14.01,2014-01-06 14:43:00,
2014-01-06 09:48:00,30.8,19.3,29.93,WNW,302,6.0,11.0,62,0.00,,CLR,0.08,VWS V14.01,2014-01-06 14:48:00,
2014-01-06 09:53:00,30.6,19.1,29.94,WNW,300,6.0,11.0,62,0.00,,CLR,0.08,VWS V14.01,2014-01-06 14:53:00,
2014-01-06 09:58:00,30.5,18.7,29.94,NW,314,7.0,11.0,61,0.00,,CLR,0.08,VWS V14.01,2014-01-06 14:58:00,
2014-01-06 10:03:00,30.4,18.6,29.94,WNW,299,7.0,11.0,61,0.00,,CLR,0.08,VWS V14.01,2014-01-06 15:03:00,
2014-01-06 10:08:00,30.4,18.6,29.95,West,281,11.0,11.0,61,0.00,,CLR,0.08,VWS V14.01,2014-01-06 15:08:00,
2014-01-06 10:13:00,30.2,17.6,29.95,WNW,299,10.0,11.0,59,0.00,,CLR,0.08,VWS V14.01,2014-01-06 15:13:00,
2014-01-06 10:18:00,30.3,18.5,29.95,WNW,295,8.0,11.0,61,0.00,,CLR,0.08,VWS V14.01,2014-01-06 15:18:00,
2014-01-06 10:23:00,30.5,17.5,29.95,WNW,297,7.0,11.0,58,0.00,,CLR,0.08,VWS V14.01,2014-01-06 15:23:00,
2014-01-06 10:28:00,30.4,17.4,29.95,WNW,297,6.0,11.0,58,0.00,,CLR,0.08,VWS V14.01,2014-01-06 15:28:00,
2014-01-06 10:33:00,30.7,19.2,29.96,WNW,293,2.0,11.0,62,0.00,,CLR,0.08,VWS V14.01,2014-01-06 15:33:00,
2014-01-06 10:38:00,30.7,17.3,29.96,NW,306,6.0,11.0,57,0.00,,CLR,0.08,VWS V14.01,2014-01-06 15:38:00,
2014-01-06 10:43:00,30.4,17.0,29.96,NW,316,6.0,11.0,57,0.00,,CLR,0.08,VWS V14.01,2014-01-06 15:43:00,
2014-01-06 10:48:00,30.4,17.4,29.97,WNW,286,8.0,11.0,58,0.00,,CLR,0.08,VWS V14.01,2014-01-06 15:48:00,
2014-01-06 10:53:00,30.8,18.2,29.96,West,281,3.0,11.0,59,0.00,,CLR,0.08,VWS V14.01,2014-01-06 15:53:00,
2014-01-06 10:58:00,30.8,17.4,29.97,WNW,302,9.0,11.0,57,0.00,,CLR,0.08,VWS V14.01,2014-01-06 15:58:00,
2014-01-06 11:03:00,31.2,18.5,29.96,NW,316,17.0,17.0,59,0.00,,CLR,0.08,VWS V14.01,2014-01-06 16:03:00,
2014-01-06 11:08:00,31.0,16.7,29.96,NW,306,12.0,12.0,55,0.00,,CLR,0.08,VWS V14.01,2014-01-06 16:08:00,
2014-01-06 11:13:00,30.8,17.0,29.97,NW,318,13.0,13.0,56,0.00,,CLR,0.08,VWS V14.01,2014-01-06 16:13:00,
2014-01-06 11:18:00,31.0,17.6,29.96,WNW,294,7.0,11.0,57,0.00,,CLR,0.08,VWS V14.01,2014-01-06 16:18:00,
2014-01-06 11:23:00,30.8,16.1,29.96,WNW,284,11.0,11.0,54,0.00,,CLR,0.08,VWS V14.01,2014-01-06 16:23:00,
2014-01-06 11:28:00,30.6,16.4,29.97,NW,312,13.0,13.0,55,0.00,,CLR,0.08,VWS V14.01,2014-01-06 16:28:00,
2014-01-06 11:33:00,30.5,15.4,29.97,WNW,297,11.0,11.0,53,0.00,,CLR,0.08,VWS V14.01,2014-01-06 16:33:00,
2014-01-06 11:38:00,30.5,17.5,29.97,West,259,10.0,11.0,58,0.00,,CLR,0.08,VWS V14.01,2014-01-06 16:38:00,
2014-01-06 11:43:00,30.5,15.9,29.97,WNW,300,15.0,15.0,54,0.00,,CLR,0.08,VWS V14.01,2014-01-06 16:43:00,
2014-01-06 11:48:00,30.0,16.2,29.97,WNW,287,14.0,14.0,56,0.00,,CLR,0.08,VWS V14.01,2014-01-06 16:48:00,
2014-01-06 11:53:00,29.9,16.1,29.97,NW,306,14.0,14.0,56,0.00,,CLR,0.08,VWS V14.01,2014-01-06 16:53:00,
2014-01-06 11:58:00,30.0,16.2,29.97,WNW,302,15.0,15.0,56,0.00,,CLR,0.08,VWS V14.01,2014-01-06 16:58:00,
2014-01-06 12:03:00,29.9,14.4,29.96,NW,306,8.0,11.0,52,0.00,,CLR,0.08,VWS V14.01,2014-01-06 17:03:00,
2014-01-06 12:08:00,30.3,16.1,29.96,WNW,297,8.0,11.0,55,0.00,,CLR,0.08,VWS V14.01,2014-01-06 17:08:00,
2014-01-06 12:13:00,30.4,15.3,29.97,NW,311,8.0,11.0,53,0.00,,CLR,0.08,VWS V14.01,2014-01-06 17:13:00,
2014-01-06 12:18:00,30.3,15.7,29.97,WNW,302,9.0,11.0,54,0.00,,CLR,0.08,VWS V14.01,2014-01-06 17:18:00,
2014-01-06 12:23:00,29.8,15.2,29.97,WNW,300,17.0,17.0,54,0.00,,CLR,0.08,VWS V14.01,2014-01-06 17:23:00,
2014-01-06 12:28:00,29.6,14.6,29.97,NW,305,7.0,11.0,53,0.00,,CLR,0.08,VWS V14.01,2014-01-06 17:28:00,
2014-01-06 12:33:00,29.7,14.7,29.97,NW,306,20.0,20.0,53,0.00,,CLR,0.08,VWS V14.01,2014-01-06 17:33:00,
2014-01-06 12:38:00,29.2,14.2,29.97,NW,311,11.0,11.0,53,0.00,,CLR,0.08,VWS V14.01,2014-01-06 17:38:00,
2014-01-06 12:43:00,29.5,15.8,29.97,NNW,330,9.0,11.0,56,0.00,,CLR,0.08,VWS V14.01,2014-01-06 17:43:00,
2014-01-06 12:48:00,29.6,15.4,29.97,NW,305,7.0,11.0,55,0.00,,CLR,0.08,VWS V14.01,2014-01-06 17:48:00,
2014-01-06 12:53:00,29.4,14.4,29.97,NNW,329,16.0,16.0,53,0.00,,CLR,0.08,VWS V14.01,2014-01-06 17:53:00,
2014-01-06 12:58:00,28.9,14.8,29.97,NNW,338,14.0,14.0,55,0.00,,CLR,0.08,VWS V14.01,2014-01-06 17:58:00,
2014-01-06 13:03:00,28.7,13.8,29.98,NNW,331,15.0,15.0,53,0.00,,CLR,0.08,VWS V14.01,2014-01-06 18:03:00,
2014-01-06 13:08:00,28.6,13.6,29.98,NNW,330,11.0,11.0,53,0.00,,CLR,0.08,VWS V14.01,2014-01-06 18:08:00,
2014-01-06 13:13:00,28.8,14.7,29.97,NNW,347,14.0,14.0,55,0.00,,CLR,0.08,VWS V14.01,2014-01-06 18:13:00,
2014-01-06 13:18:00,29.3,13.4,29.97,North,360,10.0,11.0,51,0.00,,CLR,0.08,VWS V14.01,2014-01-06 18:18:00,
2014-01-06 13:23:00,29.4,13.5,29.98,NNW,343,11.0,11.0,51,0.00,,CLR,0.08,VWS V14.01,2014-01-06 18:23:00,
2014-01-06 13:28:00,29.8,13.9,29.98,NW,326,11.0,11.0,51,0.00,,CLR,0.08,VWS V14.01,2014-01-06 18:28:00,
2014-01-06 13:33:00,29.6,12.8,29.98,NNE,13,13.0,13.0,49,0.00,,CLR,0.08,VWS V14.01,2014-01-06 18:33:00,
2014-01-06 13:38:00,30.0,13.6,29.98,NW,323,11.0,11.0,50,0.00,,CLR,0.08,VWS V14.01,2014-01-06 18:38:00,
2014-01-06 13:43:00,29.9,14.0,29.98,NW,316,17.0,17.0,51,0.00,,CLR,0.08,VWS V14.01,2014-01-06 18:43:00,
2014-01-06 13:48:00,29.8,13.9,29.98,NW,321,11.0,11.0,51,0.00,,CLR,0.08,VWS V14.01,2014-01-06 18:48:00,
2014-01-06 13:53:00,29.5,12.7,29.98,NW,309,9.0,11.0,49,0.00,,CLR,0.08,VWS V14.01,2014-01-06 18:53:00,
2014-01-06 13:58:00,29.6,12.3,29.98,NNW,329,12.0,12.0,48,0.00,,CLR,0.08,VWS V14.01,2014-01-06 18:58:00,
2014-01-06 14:03:00,29.6,13.3,29.98,NNW,329,9.0,11.0,50,0.00,,CLR,0.08,VWS V14.01,2014-01-06 19:03:00,
2014-01-06 14:08:00,29.9,14.0,29.98,WNW,297,9.0,11.0,51,0.00,,CLR,0.08,VWS V14.01,2014-01-06 19:08:00,
2014-01-06 14:13:00,29.5,13.6,29.98,NW,307,11.0,11.0,51,0.00,,CLR,0.08,VWS V14.01,2014-01-06 19:13:00,
2014-01-06 14:18:00,29.1,12.3,29.99,NNW,341,10.0,11.0,49,0.00,,CLR,0.08,VWS V14.01,2014-01-06 19:18:00,
2014-01-06 14:23:00,28.9,12.6,29.99,WNW,292,8.0,11.0,50,0.00,,CLR,0.08,VWS V14.01,2014-01-06 19:23:00,
2014-01-06 14:28:00,29.0,12.2,29.99,NW,325,18.0,18.0,49,0.00,,CLR,0.08,VWS V14.01,2014-01-06 19:28:00,
2014-01-06 14:33:00,28.7,11.0,29.99,NNW,338,15.0,15.0,47,0.00,,CLR,0.08,VWS V14.01,2014-01-06 19:33:00,
2014-01-06 14:38:00,28.8,12.5,29.99,NW,325,11.0,11.0,50,0.00,,CLR,0.08,VWS V14.01,2014-01-06 19:38:00,
2014-01-06 14:43:00,29.0,12.7,29.99,NNE,12,15.0,15.0,50,0.00,,CLR,0.08,VWS V14.01,2014-01-06 19:43:00,
2014-01-06 14:48:00,29.1,12.8,29.99,NNW,338,9.0,11.0,50,0.00,,CLR,0.08,VWS V14.01,2014-01-06 19:48:00,
2014-01-06 14:53:00,29.4,11.7,30.00,NW,322,8.0,11.0,47,0.00,,CLR,0.08,VWS V14.01,2014-01-06 19:53:00,
2014-01-06 14:58:00,29.7,11.5,30.00,NNW,329,14.0,14.0,46,0.00,,CLR,0.08,VWS V14.01,2014-01-06 19:58:00,
2014-01-06 15:03:00,29.4,10.7,30.01,NW,319,9.0,11.0,45,0.00,,CLR,0.08,VWS V14.01,2014-01-06 20:03:00,
2014-01-06 15:08:00,29.3,11.1,30.01,NNW,332,9.0,11.0,46,0.00,,CLR,0.08,VWS V14.01,2014-01-06 20:08:00,
2014-01-06 15:13:00,29.1,9.9,30.01,WNW,302,13.0,13.0,44,0.00,,CLR,0.08,VWS V14.01,2014-01-06 20:13:00,
2014-01-06 15:18:00,28.8,9.6,30.02,NNW,329,14.0,14.0,44,0.00,,CLR,0.08,VWS V14.01,2014-01-06 20:18:00,
2014-01-06 15:23:00,28.2,9.1,30.02,NW,326,4.0,11.0,44,0.00,,CLR,0.08,VWS V14.01,2014-01-06 20:23:00,
2014-01-06 15:28:00,28.2,9.6,30.02,NW,322,9.0,11.0,45,0.00,,CLR,0.08,VWS V14.01,2014-01-06 20:28:00,
2014-01-06 15:33:00,27.9,9.8,30.03,NNW,329,14.0,14.0,46,0.00,,CLR,0.08,VWS V14.01,2014-01-06 20:33:00,
2014-01-06 15:38:00,27.7,9.6,30.03,WNW,300,8.0,11.0,46,0.00,,CLR,0.08,VWS V14.01,2014-01-06 20:38:00,
2014-01-06 15:43:00,27.4,10.8,30.04,NNW,338,16.0,16.0,49,0.00,,CLR,0.08,VWS V14.01,2014-01-06 20:43:00,
2014-01-06 15:48:00,26.8,9.8,30.04,NE,37,8.0,11.0,48,0.00,,CLR,0.08,VWS V14.01,2014-01-06 20:48:00,
2014-01-06 15:53:00,26.3,9.8,30.04,NNW,332,12.0,12.0,49,0.00,,CLR,0.08,VWS V14.01,2014-01-06 20:53:00,
2014-01-06 15:58:00,25.7,10.5,30.05,WNW,290,10.0,11.0,52,0.00,,CLR,0.08,VWS V14.01,2014-01-06 20:58:00,
2014-01-06 16:03:00,25.2,8.7,30.06,NNW,329,15.0,15.0,49,0.00,,CLR,0.08,VWS V14.01,2014-01-06 21:03:00,
2014-01-06 16:08:00,24.3,8.4,30.06,NNW,330,13.0,13.0,50,0.00,,CLR,0.08,VWS V14.01,2014-01-06 21:08:00,
2014-01-06 16:13:00,23.8,7.4,30.07,NNW,333,15.0,15.0,49,0.00,,CLR,0.08,VWS V14.01,2014-01-06 21:13:00,
2014-01-06 16:18:00,23.3,6.5,30.07,NW,309,11.0,11.0,48,0.00,,CLR,0.08,VWS V14.01,2014-01-06 21:18:00,
2014-01-06 16:23:00,22.7,6.0,30.07,NNW,340,15.0,15.0,48,0.00,,CLR,0.08,VWS V14.01,2014-01-06 21:23:00,
2014-01-06 16:28:00,22.5,4.9,30.07,NW,323,14.0,14.0,46,0.00,,CLR,0.08,VWS V14.01,2014-01-06 21:28:00,
2014-01-06 16:33:00,21.8,3.7,30.08,NNW,338,12.0,12.0,45,0.00,,CLR,0.08,VWS V14.01,2014-01-06 21:33:00,
2014-01-06 16:38:00,21.4,4.3,30.09,NW,318,18.0,18.0,47,0.00,,CLR,0.08,VWS V14.01,2014-01-06 21:38:00,
2014-01-06 16:43:00,20.9,4.3,30.09,NW,320,8.0,11.0,48,0.00,,CLR,0.08,VWS V14.01,2014-01-06 21:43:00,
2014-01-06 16:48:00,20.3,3.8,30.09,NW,316,5.0,11.0,48,0.00,,CLR,0.08,VWS V14.01,2014-01-06 21:48:00,
2014-01-06 16:53:00,19.6,3.5,30.10,North,358,9.0,11.0,49,0.00,,CLR,0.08,VWS V14.01,2014-01-06 21:53:00,
2014-01-06 16:58:00,19.0,3.0,30.10,NNW,331,16.0,16.0,49,0.00,,CLR,0.08,VWS V14.01,2014-01-06 21:58:00,
2014-01-06 17:03:00,18.6,2.6,30.10,North,359,17.0,17.0,49,0.00,,CLR,0.08,VWS V14.01,2014-01-06 22:03:00,
2014-01-06 17:08:00,17.8,1.9,30.11,NNW,327,19.0,19.0,49,0.00,,CLR,0.08,VWS V14.01,2014-01-06 22:08:00,
2014-01-06 17:13:00,17.4,2.0,30.12,NNW,329,12.0,12.0,50,0.00,,CLR,0.08,VWS V14.01,2014-01-06 22:13:00,
2014-01-06 17:18:00,17.0,1.1,30.12,NNW,329,8.0,11.0,49,0.00,,CLR,0.08,VWS V14.01,2014-01-06 22:18:00,
2014-01-06 17:23:00,16.8,1.0,30.12,NNW,327,10.0,11.0,49,0.00,,CLR,0.08,VWS V14.01,2014-01-06 22:23:00,
2014-01-06 17:28:00,16.4,0.2,30.12,NNE,21,8.0,11.0,48,0.00,,CLR,0.08,VWS V14.01,2014-01-06 22:28:00,
2014-01-06 17:33:00,15.9,-0.8,30.13,NNW,340,12.0,12.0,47,0.00,,CLR,0.08,VWS V14.01,2014-01-06 22:33:00,
2014-01-06 17:38:00,15.5,-1.6,30.13,NNW,329,11.0,11.0,46,0.00,,CLR,0.08,VWS V14.01,2014-01-06 22:38:00,
2014-01-06 17:43:00,15.1,-2.9,30.14,NW,316,14.0,14.0,44,0.00,,CLR,0.08,VWS V14.01,2014-01-06 22:43:00,
2014-01-06 17:48:00,14.9,-3.1,30.14,NE,46,14.0,14.0,44,0.00,,CLR,0.08,VWS V14.01,2014-01-06 22:48:00,
2014-01-06 17:53:00,14.7,-2.8,30.15,NNW,328,10.0,11.0,45,0.00,,CLR,0.08,VWS V14.01,2014-01-06 22:53:00,
2014-01-06 17:58:00,14.4,-2.6,30.15,NNW,327,14.0,14.0,46,0.00,,CLR,0.08,VWS V14.01,2014-01-06 22:58:00,
2014-01-06 18:03:00,14.3,-2.2,30.16,North,358,12.0,12.0,47,0.00,,CLR,0.08,VWS V14.01,2014-01-06 23:03:00,
2014-01-06 18:08:00,14.0,-3.0,30.16,NNW,330,15.0,15.0,46,0.00,,CLR,0.08,VWS V14.01,2014-01-06 23:08:00,
2014-01-06 18:13:00,13.7,-2.3,30.17,WNW,302,6.0,11.0,48,0.00,,CLR,0.08,VWS V14.01,2014-01-06 23:13:00,
2014-01-06 18:18:00,13.4,-3.1,30.18,NNW,345,8.0,11.0,47,0.00,,CLR,0.08,VWS V14.01,2014-01-06 23:18:00,
2014-01-06 18:23:00,13.3,-4.1,30.19,WNW,292,11.0,11.0,45,0.00,,CLR,0.08,VWS V14.01,2014-01-06 23:23:00,
2014-01-06 18:28:00,13.2,-3.7,30.19,NW,305,5.0,11.0,46,0.00,,CLR,0.08,VWS V14.01,2014-01-06 23:28:00,
2014-01-06 18:33:00,13.0,-3.9,30.19,North,349,5.0,11.0,46,0.00,,CLR,0.08,VWS V14.01,2014-01-06 23:33:00,
2014-01-06 18:38:00,12.8,-4.1,30.20,NW,305,8.0,11.0,46,0.00,,CLR,0.08,VWS V14.01,2014-01-06 23:38:00,
2014-01-06 18:43:00,12.6,-4.2,30.20,NNW,330,8.0,11.0,46,0.00,,CLR,0.08,VWS V14.01,2014-01-06 23:43:00,
2014-01-06 18:48:00,12.4,-4.4,30.21,NNW,331,13.0,13.0,46,0.00,,CLR,0.08,VWS V14.01,2014-01-06 23:48:00,
2014-01-06 18:53:00,12.2,-4.6,30.21,NW,316,6.0,11.0,46,0.00,,CLR,0.08,VWS V14.01,2014-01-06 23:53:00,
2014-01-06 18:58:00,12.0,-5.2,30.22,NNW,338,6.0,11.0,45,0.00,,CLR,0.08,VWS V14.01,2014-01-06 23:58:00,
2014-01-06 19:03:00,11.7,-5.1,30.22,WNW,298,7.0,11.0,46,0.00,,CLR,0.08,VWS V14.01,2014-01-07 00:03:00,
2014-01-06 19:08:00,11.6,-4.7,30.22,NW,325,10.0,11.0,47,0.00,,CLR,0.08,VWS V14.01,2014-01-07 00:08:00,
2014-01-06 19:13:00,11.5,-5.7,30.22,NNW,338,10.0,11.0,45,0.00,,CLR,0.08,VWS V14.01,2014-01-07 00:13:00,
2014-01-06 19:18:00,11.2,-5.5,30.22,NW,322,8.0,11.0,46,0.00,,CLR,0.08,VWS V14.01,2014-01-07 00:18:00,
2014-01-06 19:23:00,11.1,-5.6,30.22,WNW,292,8.0,11.0,46,0.00,,CLR,0.08,VWS V14.01,2014-01-07 00:23:00,
2014-01-06 19:28:00,11.1,-6.1,30.22,West,281,14.0,14.0,45,0.00,,CLR,0.08,VWS V14.01,2014-01-07 00:28:00,
2014-01-06 19:33:00,11.1,-6.1,30.23,NW,316,7.0,11.0,45,0.00,,CLR,0.08,VWS V14.01,2014-01-07 00:33:00,
2014-01-06 19:38:00,10.9,-5.8,30.23,NNW,336,8.0,11.0,46,0.00,,CLR,0.08,VWS V14.01,2014-01-07 00:38:00,
2014-01-06 19:43:00,10.8,-5.9,30.24,WNW,295,9.0,11.0,46,0.00,,CLR,0.08,VWS V14.01,2014-01-07 00:43:00,
2014-01-06 19:48:00,10.8,-6.4,30.23,WNW,298,11.0,11.0,45,0.00,,CLR,0.08,VWS V14.01,2014-01-07 00:48:00,
2014-01-06 19:53:00,10.7,-6.4,30.24,NW,312,9.0,11.0,45,0.00,,CLR,0.08,VWS V14.01,2014-01-07 00:53:00,
2014-01-06 19:58:00,10.5,-6.2,30.24,NNW,338,17.0,17.0,46,0.00,,CLR,0.08,VWS V14.01,2014-01-07 00:58:00,
2014-01-06 20:03:00,10.4,-6.3,30.24,NW,325,8.0,11.0,46,0.00,,CLR,0.08,VWS V14.01,2014-01-07 01:03:00,
2014-01-06 20:08:00,10.3,-5.9,30.25,NNW,339,6.0,11.0,47,0.00,,CLR,0.08,VWS V14.01,2014-01-07 01:08:00,
2014-01-06 20:13:00,10.1,-5.2,30.25,NW,319,6.0,11.0,49,0.00,,CLR,0.08,VWS V14.01,2014-01-07 01:13:00,
2014-01-06 20:18:00,10.1,-5.7,30.26,NW,307,7.0,11.0,48,0.00,,CLR,0.08,VWS V14.01,2014-01-07 01:18:00,
2014-01-06 20:23:00,10.0,-5.3,30.26,NNW,345,5.0,11.0,49,0.00,,CLR,0.08,VWS V14.01,2014-01-07 01:23:00,
2014-01-06 20:28:00,9.9,-5.4,30.26,West,277,3.0,11.0,49,0.00,,CLR,0.08,VWS V14.01,2014-01-07 01:28:00,
2014-01-06 20:33:00,9.9,-5.9,30.27,WNW,301,11.0,11.0,48,0.00,,CLR,0.08,VWS V14.01,2014-01-07 01:33:00,
2014-01-06 20:38:00,9.8,-5.9,30.27,NNW,335,5.0,11.0,48,0.00,,CLR,0.08,VWS V14.01,2014-01-07 01:38:00,
2014-01-06 20:43:00,9.7,-6.0,30.27,SW,231,1.0,11.0,48,0.00,,CLR,0.08,VWS V14.01,2014-01-07 01:43:00,
2014-01-06 20:48:00,9.6,-5.7,30.28,NW,316,6.0,11.0,49,0.00,,CLR,0.08,VWS V14.01,2014-01-07 01:48:00,
2014-01-06 20:53:00,9.6,-5.7,30.28,NNW,329,9.0,11.0,49,0.00,,CLR,0.08,VWS V14.01,2014-01-07 01:53:00,
2014-01-06 20:58:00,9.5,-5.4,30.29,NNW,338,3.0,11.0,50,0.00,,CLR,0.08,VWS V14.01,2014-01-07 01:58:00,
2014-01-06 23:43:00,6.3,-8.4,30.32,NW,315,6.0,8.0,50,0.00,,CLR,0.08,VWS V14.01,2014-01-07 04:43:00,
2014-01-06 23:48:00,6.2,-7.3,30.33,WNW,296,10.0,10.0,53,0.00,,CLR,0.08,VWS V14.01,2014-01-07 04:48:00,
2014-01-06 23:53:00,6.2,-7.7,30.33,NW,307,7.0,8.0,52,0.00,,CLR,0.08,VWS V14.01,2014-01-07 04:53:00,
2014-01-06 23:58:00,6.1,-8.1,30.33,WNW,285,7.0,8.0,51,0.00,,CLR,0.08,VWS V14.01,2014-01-07 04:58:00,